sensor_id;sensor_type;location;lat;lon;timestamp;pressure;altitude;pressure_sealevel;temperature;humidity
78615;BME280;67937;52.488;20.952;2023-03-21T00:01:05;100460.16;;;7.74;88.44
78615;BME280;67937;52.488;20.952;2023-03-21T00:03:33;100462.95;;;7.74;88.37
78615;BME280;67937;52.488;20.952;2023-03-21T00:06:06;100460.16;;;7.76;88.34
78615;BME280;67937;52.488;20.952;2023-03-21T00:08:35;100460.09;;;7.72;88.44
78615;BME280;67937;52.488;20.952;2023-03-21T00:11:05;100460.75;;;7.75;88.50
78615;BME280;67937;52.488;20.952;2023-03-21T00:13:34;100463.11;;;7.72;88.55
78615;BME280;67937;52.488;20.952;2023-03-21T00:16:10;100460.42;;;7.78;88.32
78615;BME280;67937;52.488;20.952;2023-03-21T00:18:45;100456.68;;;7.73;88.41
78615;BME280;67937;52.488;20.952;2023-03-21T00:21:16;100455.23;;;7.66;88.59
78615;BME280;67937;52.488;20.952;2023-03-21T00:23:45;100453.00;;;7.68;88.57
78615;BME280;67937;52.488;20.952;2023-03-21T00:26:14;100448.39;;;7.71;88.59
78615;BME280;67937;52.488;20.952;2023-03-21T00:28:43;100444.82;;;7.67;88.55
78615;BME280;67937;52.488;20.952;2023-03-21T00:31:11;100447.70;;;7.68;88.57
78615;BME280;67937;52.488;20.952;2023-03-21T00:33:39;100449.45;;;7.71;88.47
78615;BME280;67937;52.488;20.952;2023-03-21T00:36:08;100446.90;;;7.72;88.53
78615;BME280;67937;52.488;20.952;2023-03-21T00:38:36;100445.03;;;7.63;88.44
78615;BME280;67937;52.488;20.952;2023-03-21T00:41:09;100445.33;;;7.59;88.70
78615;BME280;67937;52.488;20.952;2023-03-21T00:43:39;100445.62;;;7.63;88.45
78615;BME280;67937;52.488;20.952;2023-03-21T00:46:07;100445.38;;;7.64;88.34
78615;BME280;67937;52.488;20.952;2023-03-21T00:48:35;100444.75;;;7.65;88.36
78615;BME280;67937;52.488;20.952;2023-03-21T00:51:11;100440.56;;;7.62;88.31
78615;BME280;67937;52.488;20.952;2023-03-21T00:53:41;100438.21;;;7.55;88.69
78615;BME280;67937;52.488;20.952;2023-03-21T00:56:09;100439.85;;;7.54;88.64
78615;BME280;67937;52.488;20.952;2023-03-21T00:58:37;100437.66;;;7.50;88.62
78615;BME280;67937;52.488;20.952;2023-03-21T01:01:05;100436.65;;;7.47;88.59
78615;BME280;67937;52.488;20.952;2023-03-21T01:03:34;100436.38;;;7.59;88.23
78615;BME280;67937;52.488;20.952;2023-03-21T01:06:09;100437.51;;;7.52;88.27
78615;BME280;67937;52.488;20.952;2023-03-21T01:08:40;100435.03;;;7.45;88.40
78615;BME280;67937;52.488;20.952;2023-03-21T01:11:12;100433.80;;;7.45;88.50
78615;BME280;67937;52.488;20.952;2023-03-21T01:13:41;100437.30;;;7.40;88.56
78615;BME280;67937;52.488;20.952;2023-03-21T01:16:09;100436.42;;;7.42;88.52
78615;BME280;67937;52.488;20.952;2023-03-21T01:18:38;100434.07;;;7.38;88.52
78615;BME280;67937;52.488;20.952;2023-03-21T01:21:10;100440.23;;;7.40;88.41
78615;BME280;67937;52.488;20.952;2023-03-21T01:23:40;100437.91;;;7.33;88.61
78615;BME280;67937;52.488;20.952;2023-03-21T01:26:10;100433.42;;;7.32;88.70
78615;BME280;67937;52.488;20.952;2023-03-21T01:28:39;100432.48;;;7.27;88.79
78615;BME280;67937;52.488;20.952;2023-03-21T01:31:10;100433.43;;;7.29;88.80
78615;BME280;67937;52.488;20.952;2023-03-21T01:33:39;100427.23;;;7.27;88.74
78615;BME280;67937;52.488;20.952;2023-03-21T01:36:10;100428.26;;;7.30;88.65
78615;BME280;67937;52.488;20.952;2023-03-21T01:38:41;100426.29;;;7.28;88.73
78615;BME280;67937;52.488;20.952;2023-03-21T01:41:35;100425.70;;;7.27;88.93
78615;BME280;67937;52.488;20.952;2023-03-21T01:44:04;100420.52;;;7.28;88.94
78615;BME280;67937;52.488;20.952;2023-03-21T01:51:45;100424.31;;;7.37;88.72
78615;BME280;67937;52.488;20.952;2023-03-21T01:54:20;100424.41;;;7.38;88.65
78615;BME280;67937;52.488;20.952;2023-03-21T01:56:52;100420.16;;;7.36;88.96
78615;BME280;67937;52.488;20.952;2023-03-21T01:59:26;100419.19;;;7.38;88.81
78615;BME280;67937;52.488;20.952;2023-03-21T02:01:59;100418.09;;;7.38;88.96
78615;BME280;67937;52.488;20.952;2023-03-21T02:04:34;100413.02;;;7.35;88.98
78615;BME280;67937;52.488;20.952;2023-03-21T02:07:11;100412.42;;;7.41;88.88
78615;BME280;67937;52.488;20.952;2023-03-21T02:09:45;100408.36;;;7.42;88.81
78615;BME280;67937;52.488;20.952;2023-03-21T02:12:15;100409.77;;;7.42;89.09
78615;BME280;67937;52.488;20.952;2023-03-21T02:14:45;100409.00;;;7.43;89.12
78615;BME280;67937;52.488;20.952;2023-03-21T02:17:32;100412.55;;;7.42;89.04
78615;BME280;67937;52.488;20.952;2023-03-21T02:29:00;100416.15;;;7.41;88.69
78615;BME280;67937;52.488;20.952;2023-03-21T02:31:40;100416.73;;;7.40;88.60
78615;BME280;67937;52.488;20.952;2023-03-21T02:34:37;100417.85;;;7.37;88.65
78615;BME280;67937;52.488;20.952;2023-03-21T02:37:18;100417.05;;;7.33;88.56
78615;BME280;67937;52.488;20.952;2023-03-21T02:40:06;100413.48;;;7.30;88.76
78615;BME280;67937;52.488;20.952;2023-03-21T02:43:03;100409.72;;;7.29;88.82
78615;BME280;67937;52.488;20.952;2023-03-21T02:45:41;100412.27;;;7.38;88.35
78615;BME280;67937;52.488;20.952;2023-03-21T02:48:14;100416.42;;;7.37;88.21
78615;BME280;67937;52.488;20.952;2023-03-21T02:50:49;100415.96;;;7.31;88.31
78615;BME280;67937;52.488;20.952;2023-03-21T02:53:21;100421.23;;;7.33;88.36
78615;BME280;67937;52.488;20.952;2023-03-21T02:55:51;100421.33;;;7.34;88.27
78615;BME280;67937;52.488;20.952;2023-03-21T02:58:23;100418.90;;;7.29;88.25
78615;BME280;67937;52.488;20.952;2023-03-21T03:00:53;100422.11;;;7.28;88.47
78615;BME280;67937;52.488;20.952;2023-03-21T03:03:22;100420.79;;;7.29;88.21
78615;BME280;67937;52.488;20.952;2023-03-21T03:05:58;100421.25;;;7.22;88.19
78615;BME280;67937;52.488;20.952;2023-03-21T03:11:14;100423.68;;;7.25;88.23
78615;BME280;67937;52.488;20.952;2023-03-21T03:14:36;100426.84;;;7.25;88.13
78615;BME280;67937;52.488;20.952;2023-03-21T03:17:17;100426.08;;;7.21;88.22
78615;BME280;67937;52.488;20.952;2023-03-21T03:22:22;100432.45;;;7.22;88.04
78615;BME280;67937;52.488;20.952;2023-03-21T03:25:06;100434.20;;;7.22;88.02
78615;BME280;67937;52.488;20.952;2023-03-21T03:27:40;100437.61;;;7.19;87.98
78615;BME280;67937;52.488;20.952;2023-03-21T03:30:10;100436.60;;;7.21;87.96
78615;BME280;67937;52.488;20.952;2023-03-21T03:32:52;100441.70;;;7.21;87.89
78615;BME280;67937;52.488;20.952;2023-03-21T03:35:22;100432.14;;;7.19;87.93
78615;BME280;67937;52.488;20.952;2023-03-21T03:37:57;100447.38;;;7.20;87.72
78615;BME280;67937;52.488;20.952;2023-03-21T03:40:34;100450.92;;;7.11;87.94
78615;BME280;67937;52.488;20.952;2023-03-21T03:43:14;100447.78;;;7.11;87.89
78615;BME280;67937;52.488;20.952;2023-03-21T03:45:48;100448.13;;;7.16;87.65
78615;BME280;67937;52.488;20.952;2023-03-21T03:48:27;100448.19;;;7.10;87.97
78615;BME280;67937;52.488;20.952;2023-03-21T03:51:05;100448.89;;;7.15;87.82
78615;BME280;67937;52.488;20.952;2023-03-21T03:53:39;100450.70;;;7.14;87.97
78615;BME280;67937;52.488;20.952;2023-03-21T03:56:09;100446.02;;;7.08;88.13
78615;BME280;67937;52.488;20.952;2023-03-21T03:58:38;100447.29;;;7.13;88.04
78615;BME280;67937;52.488;20.952;2023-03-21T04:01:07;100446.36;;;7.11;88.01
78615;BME280;67937;52.488;20.952;2023-03-21T04:03:38;100447.55;;;7.14;88.08
78615;BME280;67937;52.488;20.952;2023-03-21T04:06:08;100450.18;;;7.17;87.86
78615;BME280;67937;52.488;20.952;2023-03-21T04:08:36;100446.16;;;7.11;88.02
78615;BME280;67937;52.488;20.952;2023-03-21T04:11:05;100450.69;;;7.12;87.93
78615;BME280;67937;52.488;20.952;2023-03-21T04:13:33;100451.71;;;7.09;87.98
78615;BME280;67937;52.488;20.952;2023-03-21T04:16:01;100450.89;;;7.12;88.11
78615;BME280;67937;52.488;20.952;2023-03-21T04:18:30;100447.04;;;7.17;87.98
78615;BME280;67937;52.488;20.952;2023-03-21T04:20:58;100448.52;;;7.15;87.92
78615;BME280;67937;52.488;20.952;2023-03-21T04:23:26;100448.36;;;7.18;87.73
78615;BME280;67937;52.488;20.952;2023-03-21T04:25:55;100445.48;;;7.16;87.72
78615;BME280;67937;52.488;20.952;2023-03-21T04:28:23;100445.97;;;7.22;87.65
78615;BME280;67937;52.488;20.952;2023-03-21T04:30:51;100446.99;;;7.20;87.50
78615;BME280;67937;52.488;20.952;2023-03-21T04:33:19;100450.39;;;7.14;87.64
78615;BME280;67937;52.488;20.952;2023-03-21T04:35:47;100455.73;;;7.15;87.56
78615;BME280;67937;52.488;20.952;2023-03-21T04:38:15;100452.98;;;7.06;87.77
78615;BME280;67937;52.488;20.952;2023-03-21T04:40:43;100456.19;;;7.08;87.86
78615;BME280;67937;52.488;20.952;2023-03-21T04:43:10;100456.13;;;7.09;87.75
78615;BME280;67937;52.488;20.952;2023-03-21T04:45:39;100461.10;;;7.08;87.77
78615;BME280;67937;52.488;20.952;2023-03-21T04:48:07;100460.55;;;7.11;87.53
78615;BME280;67937;52.488;20.952;2023-03-21T04:50:35;100459.81;;;7.09;87.20
78615;BME280;67937;52.488;20.952;2023-03-21T04:53:03;100460.63;;;7.07;87.28
78615;BME280;67937;52.488;20.952;2023-03-21T04:55:31;100462.12;;;7.11;87.17
78615;BME280;67937;52.488;20.952;2023-03-21T04:57:59;100466.52;;;7.14;87.19
78615;BME280;67937;52.488;20.952;2023-03-21T05:00:27;100465.98;;;7.11;87.20
78615;BME280;67937;52.488;20.952;2023-03-21T05:02:55;100471.52;;;7.18;87.27
78615;BME280;67937;52.488;20.952;2023-03-21T05:05:24;100469.18;;;7.27;86.84
78615;BME280;67937;52.488;20.952;2023-03-21T05:07:52;100466.48;;;7.25;86.42
78615;BME280;67937;52.488;20.952;2023-03-21T05:10:19;100469.01;;;7.19;86.57
78615;BME280;67937;52.488;20.952;2023-03-21T05:12:47;100468.21;;;7.17;86.68
78615;BME280;67937;52.488;20.952;2023-03-21T05:15:15;100469.77;;;7.23;86.76
78615;BME280;67937;52.488;20.952;2023-03-21T05:17:43;100467.64;;;7.29;86.58
78615;BME280;67937;52.488;20.952;2023-03-21T05:20:14;100468.41;;;7.25;86.66
78615;BME280;67937;52.488;20.952;2023-03-21T05:22:42;100472.44;;;7.31;86.27
78615;BME280;67937;52.488;20.952;2023-03-21T05:25:11;100474.65;;;7.24;86.11
78615;BME280;67937;52.488;20.952;2023-03-21T05:27:39;100474.34;;;7.20;86.19
78615;BME280;67937;52.488;20.952;2023-03-21T05:30:15;100478.23;;;7.18;86.21
78615;BME280;67937;52.488;20.952;2023-03-21T05:32:44;100476.41;;;7.18;86.28
78615;BME280;67937;52.488;20.952;2023-03-21T05:35:12;100476.17;;;7.22;85.96
78615;BME280;67937;52.488;20.952;2023-03-21T05:37:40;100480.70;;;7.23;86.09
78615;BME280;67937;52.488;20.952;2023-03-21T05:40:08;100482.45;;;7.17;86.12
78615;BME280;67937;52.488;20.952;2023-03-21T05:42:36;100482.56;;;7.21;86.24
78615;BME280;67937;52.488;20.952;2023-03-21T05:45:05;100482.64;;;7.23;86.06
78615;BME280;67937;52.488;20.952;2023-03-21T05:47:33;100486.95;;;7.27;86.20
78615;BME280;67937;52.488;20.952;2023-03-21T05:50:01;100493.23;;;7.27;86.19
78615;BME280;67937;52.488;20.952;2023-03-21T05:52:29;100492.68;;;7.33;85.98
78615;BME280;67937;52.488;20.952;2023-03-21T05:54:57;100496.70;;;7.28;86.04
78615;BME280;67937;52.488;20.952;2023-03-21T05:57:25;100501.05;;;7.26;86.20
78615;BME280;67937;52.488;20.952;2023-03-21T05:59:55;100502.20;;;7.29;86.21
78615;BME280;67937;52.488;20.952;2023-03-21T06:02:23;100506.70;;;7.28;86.16
78615;BME280;67937;52.488;20.952;2023-03-21T06:04:51;100510.40;;;7.33;86.21
78615;BME280;67937;52.488;20.952;2023-03-21T06:07:20;100513.96;;;7.29;86.25
78615;BME280;67937;52.488;20.952;2023-03-21T06:09:48;100510.83;;;7.24;86.55
78615;BME280;67937;52.488;20.952;2023-03-21T06:12:16;100508.59;;;7.23;86.47
78615;BME280;67937;52.488;20.952;2023-03-21T06:14:44;100513.69;;;7.23;86.54
78615;BME280;67937;52.488;20.952;2023-03-21T06:17:12;100509.86;;;7.25;86.49
78615;BME280;67937;52.488;20.952;2023-03-21T06:19:40;100512.68;;;7.28;86.40
78615;BME280;67937;52.488;20.952;2023-03-21T06:22:08;100512.42;;;7.26;86.36
78615;BME280;67937;52.488;20.952;2023-03-21T06:24:36;100517.94;;;7.30;86.24
78615;BME280;67937;52.488;20.952;2023-03-21T06:27:04;100519.39;;;7.30;86.31
78615;BME280;67937;52.488;20.952;2023-03-21T06:29:32;100518.16;;;7.38;86.23
78615;BME280;67937;52.488;20.952;2023-03-21T06:32:00;100519.38;;;7.38;86.14
78615;BME280;67937;52.488;20.952;2023-03-21T06:34:28;100521.44;;;7.44;86.02
78615;BME280;67937;52.488;20.952;2023-03-21T06:36:56;100519.73;;;7.41;86.08
78615;BME280;67937;52.488;20.952;2023-03-21T06:39:24;100521.36;;;7.40;86.11
78615;BME280;67937;52.488;20.952;2023-03-21T06:41:52;100524.67;;;7.38;86.29
78615;BME280;67937;52.488;20.952;2023-03-21T06:44:20;100521.36;;;7.35;86.26
78615;BME280;67937;52.488;20.952;2023-03-21T06:46:50;100525.09;;;7.45;86.18
78615;BME280;67937;52.488;20.952;2023-03-21T06:49:19;100523.85;;;7.53;85.95
78615;BME280;67937;52.488;20.952;2023-03-21T06:51:47;100524.52;;;7.43;86.05
78615;BME280;67937;52.488;20.952;2023-03-21T06:54:15;100528.77;;;7.39;86.26
78615;BME280;67937;52.488;20.952;2023-03-21T06:56:44;100534.63;;;7.44;86.28
78615;BME280;67937;52.488;20.952;2023-03-21T06:59:12;100536.71;;;7.44;86.26
78615;BME280;67937;52.488;20.952;2023-03-21T07:01:41;100540.36;;;7.48;86.21
78615;BME280;67937;52.488;20.952;2023-03-21T07:04:09;100542.66;;;7.47;86.28
78615;BME280;67937;52.488;20.952;2023-03-21T07:06:37;100546.02;;;7.58;86.12
78615;BME280;67937;52.488;20.952;2023-03-21T07:09:05;100544.35;;;7.62;85.95
78615;BME280;67937;52.488;20.952;2023-03-21T07:11:35;100543.46;;;7.68;86.03
78615;BME280;67937;52.488;20.952;2023-03-21T07:14:04;100540.03;;;7.86;85.81
78615;BME280;67937;52.488;20.952;2023-03-21T07:16:32;100542.66;;;7.94;85.18
78615;BME280;67937;52.488;20.952;2023-03-21T07:19:00;100550.06;;;7.85;85.46
78615;BME280;67937;52.488;20.952;2023-03-21T07:21:28;100548.62;;;7.92;85.62
78615;BME280;67937;52.488;20.952;2023-03-21T07:23:56;100544.14;;;7.90;85.03
78615;BME280;67937;52.488;20.952;2023-03-21T07:26:24;100544.39;;;7.80;85.06
78615;BME280;67937;52.488;20.952;2023-03-21T07:28:52;100549.58;;;7.79;85.37
78615;BME280;67937;52.488;20.952;2023-03-21T07:31:21;100546.31;;;7.95;85.41
78615;BME280;67937;52.488;20.952;2023-03-21T07:33:52;100554.23;;;8.08;84.84
78615;BME280;67937;52.488;20.952;2023-03-21T07:36:20;100552.41;;;8.17;84.16
78615;BME280;67937;52.488;20.952;2023-03-21T07:38:48;100552.77;;;8.14;83.85
78615;BME280;67937;52.488;20.952;2023-03-21T07:41:16;100555.15;;;8.10;84.01
78615;BME280;67937;52.488;20.952;2023-03-21T07:43:44;100556.64;;;8.09;84.07
78615;BME280;67937;52.488;20.952;2023-03-21T07:46:12;100561.07;;;8.05;83.99
78615;BME280;67937;52.488;20.952;2023-03-21T07:48:40;100555.88;;;8.14;83.60
78615;BME280;67937;52.488;20.952;2023-03-21T07:51:08;100560.56;;;8.13;83.22
78615;BME280;67937;52.488;20.952;2023-03-21T07:53:36;100555.95;;;8.11;82.72
78615;BME280;67937;52.488;20.952;2023-03-21T07:56:04;100559.28;;;8.11;82.99
78615;BME280;67937;52.488;20.952;2023-03-21T07:58:32;100558.69;;;8.15;83.22
78615;BME280;67937;52.488;20.952;2023-03-21T08:01:01;100562.92;;;8.22;83.26
78615;BME280;67937;52.488;20.952;2023-03-21T08:03:29;100564.67;;;8.39;83.27
78615;BME280;67937;52.488;20.952;2023-03-21T08:05:59;100564.62;;;8.47;82.89
78615;BME280;67937;52.488;20.952;2023-03-21T08:08:27;100563.05;;;8.52;83.02
78615;BME280;67937;52.488;20.952;2023-03-21T08:10:55;100558.92;;;8.71;82.44
78615;BME280;67937;52.488;20.952;2023-03-21T08:13:23;100558.98;;;8.88;81.01
78615;BME280;67937;52.488;20.952;2023-03-21T08:15:51;100560.45;;;8.77;81.35
78615;BME280;67937;52.488;20.952;2023-03-21T08:18:19;100560.52;;;8.79;81.54
78615;BME280;67937;52.488;20.952;2023-03-21T08:20:55;100561.54;;;8.87;81.26
78615;BME280;67937;52.488;20.952;2023-03-21T08:23:24;100560.95;;;8.90;80.47
78615;BME280;67937;52.488;20.952;2023-03-21T08:25:53;100558.36;;;9.02;79.97
78615;BME280;67937;52.488;20.952;2023-03-21T08:28:22;100564.42;;;9.09;80.54
78615;BME280;67937;52.488;20.952;2023-03-21T08:30:51;100564.80;;;9.16;78.41
78615;BME280;67937;52.488;20.952;2023-03-21T08:33:19;100562.80;;;9.04;79.41
78615;BME280;67937;52.488;20.952;2023-03-21T08:35:48;100566.20;;;9.08;79.35
78615;BME280;67937;52.488;20.952;2023-03-21T08:38:16;100570.80;;;9.20;78.98
78615;BME280;67937;52.488;20.952;2023-03-21T08:40:44;100571.14;;;9.21;79.34
78615;BME280;67937;52.488;20.952;2023-03-21T08:43:12;100573.84;;;9.25;79.05
78615;BME280;67937;52.488;20.952;2023-03-21T08:45:40;100573.49;;;9.30;79.46
78615;BME280;67937;52.488;20.952;2023-03-21T08:48:08;100576.84;;;9.32;79.70
78615;BME280;67937;52.488;20.952;2023-03-21T08:50:36;100583.23;;;9.41;79.75
78615;BME280;67937;52.488;20.952;2023-03-21T08:53:04;100589.51;;;9.47;79.72
78615;BME280;67937;52.488;20.952;2023-03-21T08:55:32;100594.04;;;9.48;79.45
78615;BME280;67937;52.488;20.952;2023-03-21T08:58:00;100593.64;;;9.39;79.58
78615;BME280;67937;52.488;20.952;2023-03-21T09:00:28;100595.73;;;9.36;79.35
78615;BME280;67937;52.488;20.952;2023-03-21T09:02:57;100600.71;;;9.33;79.29
78615;BME280;67937;52.488;20.952;2023-03-21T09:05:25;100601.28;;;9.33;79.74
78615;BME280;67937;52.488;20.952;2023-03-21T09:07:53;100603.93;;;9.40;79.91
78615;BME280;67937;52.488;20.952;2023-03-21T09:10:22;100604.75;;;9.46;79.47
78615;BME280;67937;52.488;20.952;2023-03-21T09:12:53;100607.52;;;9.44;79.20
78615;BME280;67937;52.488;20.952;2023-03-21T09:15:24;100607.38;;;9.39;79.40
78615;BME280;67937;52.488;20.952;2023-03-21T09:17:54;100611.45;;;9.36;79.31
78615;BME280;67937;52.488;20.952;2023-03-21T09:20:25;100614.22;;;9.32;79.64
78615;BME280;67937;52.488;20.952;2023-03-21T09:22:58;100614.01;;;9.30;79.78
78615;BME280;67937;52.488;20.952;2023-03-21T09:25:27;100616.91;;;9.28;79.80
78615;BME280;67937;52.488;20.952;2023-03-21T09:27:56;100619.09;;;9.27;79.65
78615;BME280;67937;52.488;20.952;2023-03-21T09:30:24;100620.59;;;9.31;79.61
78615;BME280;67937;52.488;20.952;2023-03-21T09:32:52;100625.71;;;9.34;79.63
78615;BME280;67937;52.488;20.952;2023-03-21T09:35:21;100621.80;;;9.32;79.87
78615;BME280;67937;52.488;20.952;2023-03-21T09:37:49;100624.65;;;9.44;79.75
78615;BME280;67937;52.488;20.952;2023-03-21T09:43:09;100626.36;;;9.32;79.91
78615;BME280;67937;52.488;20.952;2023-03-21T09:45:53;100625.84;;;9.14;80.50
78615;BME280;67937;52.488;20.952;2023-03-21T09:48:34;100628.36;;;9.16;80.57
78615;BME280;67937;52.488;20.952;2023-03-21T09:51:09;100624.94;;;9.14;80.95
78615;BME280;67937;52.488;20.952;2023-03-21T09:53:42;100626.34;;;9.30;80.51
78615;BME280;67937;52.488;20.952;2023-03-21T09:56:11;100625.16;;;9.19;80.45
78615;BME280;67937;52.488;20.952;2023-03-21T09:58:43;100624.86;;;9.21;81.05
78615;BME280;67937;52.488;20.952;2023-03-21T10:01:15;100623.34;;;9.40;80.76
78615;BME280;67937;52.488;20.952;2023-03-21T10:03:56;100628.59;;;9.50;81.00
78615;BME280;67937;52.488;20.952;2023-03-21T10:06:26;100630.38;;;9.72;80.36
78615;BME280;67937;52.488;20.952;2023-03-21T10:08:58;100626.42;;;9.73;80.53
78615;BME280;67937;52.488;20.952;2023-03-21T10:11:31;100623.89;;;9.74;80.07
78615;BME280;67937;52.488;20.952;2023-03-21T10:14:13;100623.52;;;9.64;80.31
78615;BME280;67937;52.488;20.952;2023-03-21T10:16:44;100623.44;;;9.56;79.88
78615;BME280;67937;52.488;20.952;2023-03-21T10:19:16;100625.27;;;9.40;80.16
78615;BME280;67937;52.488;20.952;2023-03-21T10:21:45;100628.29;;;9.32;80.50
78615;BME280;67937;52.488;20.952;2023-03-21T10:24:19;100629.77;;;9.28;80.08
78615;BME280;67937;52.488;20.952;2023-03-21T10:26:50;100629.91;;;9.34;79.79
78615;BME280;67937;52.488;20.952;2023-03-21T10:29:24;100630.89;;;9.40;79.39
78615;BME280;67937;52.488;20.952;2023-03-21T10:31:54;100630.80;;;9.31;79.02
78615;BME280;67937;52.488;20.952;2023-03-21T10:34:57;100636.27;;;9.16;78.94
78615;BME280;67937;52.488;20.952;2023-03-21T10:37:26;100635.63;;;9.07;78.56
78615;BME280;67937;52.488;20.952;2023-03-21T10:39:54;100638.61;;;8.92;79.45
78615;BME280;67937;52.488;20.952;2023-03-21T10:42:29;100634.65;;;8.96;79.78
78615;BME280;67937;52.488;20.952;2023-03-21T10:44:58;100636.01;;;8.99;79.62
78615;BME280;67937;52.488;20.952;2023-03-21T10:47:31;100632.17;;;9.17;79.36
78615;BME280;67937;52.488;20.952;2023-03-21T10:50:11;100631.44;;;9.30;79.06
78615;BME280;67937;52.488;20.952;2023-03-21T10:52:49;100630.41;;;9.44;78.88
78615;BME280;67937;52.488;20.952;2023-03-21T10:57:51;100632.56;;;9.73;78.62
78615;BME280;67937;52.488;20.952;2023-03-21T11:00:22;100631.20;;;9.90;77.55
78615;BME280;67937;52.488;20.952;2023-03-21T11:02:52;100631.92;;;10.01;76.79
78615;BME280;67937;52.488;20.952;2023-03-21T11:08:09;100629.44;;;10.19;74.61
78615;BME280;67937;52.488;20.952;2023-03-21T11:10:54;100630.84;;;10.24;75.20
78615;BME280;67937;52.488;20.952;2023-03-21T11:13:42;100629.96;;;10.26;74.43
78615;BME280;67937;52.488;20.952;2023-03-21T11:16:29;100629.67;;;10.16;75.04
78615;BME280;67937;52.488;20.952;2023-03-21T11:19:05;100628.27;;;9.94;75.33
78615;BME280;67937;52.488;20.952;2023-03-21T11:21:38;100633.75;;;9.84;75.81
78615;BME280;67937;52.488;20.952;2023-03-21T11:24:15;100629.88;;;9.74;75.45
78615;BME280;67937;52.488;20.952;2023-03-21T11:26:46;100628.30;;;9.71;75.68
78615;BME280;67937;52.488;20.952;2023-03-21T11:29:37;100628.38;;;9.58;76.52
78615;BME280;67937;52.488;20.952;2023-03-21T11:42:52;100628.17;;;9.92;75.62
78615;BME280;67937;52.488;20.952;2023-03-21T11:45:23;100620.50;;;10.11;75.53
78615;BME280;67937;52.488;20.952;2023-03-21T11:47:52;100620.80;;;10.31;75.18
78615;BME280;67937;52.488;20.952;2023-03-21T11:53:10;100622.41;;;10.57;74.41
78615;BME280;67937;52.488;20.952;2023-03-21T12:04:08;100619.09;;;11.03;72.07
78615;BME280;67937;52.488;20.952;2023-03-21T12:06:45;100618.21;;;10.93;71.53
78615;BME280;67937;52.488;20.952;2023-03-21T12:09:42;100616.30;;;10.95;72.45
78615;BME280;67937;52.488;20.952;2023-03-21T12:12:26;100612.89;;;11.09;71.01
78615;BME280;67937;52.488;20.952;2023-03-21T12:15:16;100614.77;;;10.97;71.81
78615;BME280;67937;52.488;20.952;2023-03-21T12:20:28;100618.77;;;10.73;72.15
78615;BME280;67937;52.488;20.952;2023-03-21T12:25:55;100613.08;;;10.50;72.18
78615;BME280;67937;52.488;20.952;2023-03-21T12:29:03;100609.62;;;10.47;72.14
78615;BME280;67937;52.488;20.952;2023-03-21T12:39:29;100602.48;;;10.75;71.18
78615;BME280;67937;52.488;20.952;2023-03-21T12:44:50;100607.77;;;10.91;69.90
78615;BME280;67937;52.488;20.952;2023-03-21T12:47:26;100603.08;;;10.91;68.19
78615;BME280;67937;52.488;20.952;2023-03-21T12:52:34;100605.01;;;10.79;69.42
78615;BME280;67937;52.488;20.952;2023-03-21T12:55:13;100607.80;;;10.86;69.34
78615;BME280;67937;52.488;20.952;2023-03-21T13:00:37;100610.52;;;10.90;68.41
78615;BME280;67937;52.488;20.952;2023-03-21T13:03:15;100610.63;;;10.75;68.64
78615;BME280;67937;52.488;20.952;2023-03-21T13:05:51;100609.52;;;10.67;67.78
78615;BME280;67937;52.488;20.952;2023-03-21T13:10:48;100604.31;;;10.54;69.24
78615;BME280;67937;52.488;20.952;2023-03-21T13:15:49;100597.90;;;10.75;69.22
78615;BME280;67937;52.488;20.952;2023-03-21T13:21:18;100600.55;;;11.12;68.13
78615;BME280;67937;52.488;20.952;2023-03-21T13:24:04;100602.95;;;11.24;67.76
78615;BME280;67937;52.488;20.952;2023-03-21T13:26:54;100600.20;;;11.38;65.06
78615;BME280;67937;52.488;20.952;2023-03-21T13:29:30;100598.70;;;11.30;65.99
78615;BME280;67937;52.488;20.952;2023-03-21T13:32:14;100597.56;;;11.56;66.09
78615;BME280;67937;52.488;20.952;2023-03-21T13:34:43;100590.11;;;11.66;65.45
78615;BME280;67937;52.488;20.952;2023-03-21T13:37:15;100588.24;;;11.80;65.35
78615;BME280;67937;52.488;20.952;2023-03-21T13:39:45;100584.70;;;11.97;64.68
78615;BME280;67937;52.488;20.952;2023-03-21T13:42:23;100590.02;;;12.10;62.79
78615;BME280;67937;52.488;20.952;2023-03-21T13:44:59;100586.39;;;12.07;59.51
78615;BME280;67937;52.488;20.952;2023-03-21T13:47:39;100580.48;;;11.93;58.82
78615;BME280;67937;52.488;20.952;2023-03-21T13:55:44;100576.55;;;12.12;59.59
78615;BME280;67937;52.488;20.952;2023-03-21T13:58:23;100574.61;;;12.29;60.76
78615;BME280;67937;52.488;20.952;2023-03-21T14:03:44;100572.77;;;11.90;58.48
78615;BME280;67937;52.488;20.952;2023-03-21T14:06:14;100573.27;;;11.82;59.85
78615;BME280;67937;52.488;20.952;2023-03-21T14:08:45;100576.09;;;11.73;59.61
78615;BME280;67937;52.488;20.952;2023-03-21T14:11:18;100575.02;;;11.62;60.44
78615;BME280;67937;52.488;20.952;2023-03-21T14:13:46;100578.85;;;11.58;60.96
78615;BME280;67937;52.488;20.952;2023-03-21T14:16:15;100583.38;;;11.52;61.21
78615;BME280;67937;52.488;20.952;2023-03-21T14:18:47;100584.83;;;11.47;61.30
78615;BME280;67937;52.488;20.952;2023-03-21T14:21:23;100585.77;;;11.42;61.38
78615;BME280;67937;52.488;20.952;2023-03-21T14:23:57;100587.05;;;11.35;61.98
78615;BME280;67937;52.488;20.952;2023-03-21T14:26:34;100589.97;;;11.36;61.44
78615;BME280;67937;52.488;20.952;2023-03-21T14:29:04;100588.88;;;11.25;62.01
78615;BME280;67937;52.488;20.952;2023-03-21T14:31:34;100589.91;;;11.21;62.27
78615;BME280;67937;52.488;20.952;2023-03-21T14:34:02;100590.59;;;11.19;62.57
78615;BME280;67937;52.488;20.952;2023-03-21T14:36:37;100589.21;;;11.17;62.57
78615;BME280;67937;52.488;20.952;2023-03-21T14:39:19;100588.95;;;11.11;62.60